Terminal Aerodrome Forecast
Issued by NWS

Home | Current Version | Previous Version | Text Only | Print | Product List | Glossary On
Versions: 1 2 3 4 5 6 7 8 9 10 11 12 13 14 15 16 17 18 19 20 21
000
FTUS41 KPHI 261910 AAB
TAFPNE
TAF AMD
KPNE 261910Z 2619/2718 21009G17KT 6SM HZ OVC013
      TEMPO 2619/2621 P6SM NSW SCT013 BKN025
     FM262100 20014G28KT P6SM SCT012 BKN025
     FM270000 23008KT P6SM -SHRA SCT015 BKN025
      TEMPO 2701/2703 31016KT 3SM SHRA BR OVC008
     FM270300 28008KT 4SM -SHRA BR OVC015
     FM270600 33010KT P6SM -SHRA BKN025 BKN040
     FM270900 35010KT 4SM RA BR OVC008
     FM271400 34008KT P6SM BKN050 BKN100=

USA.gov is the U.S. government's official web portal to all federal, state and local government web resources and services.